createdAt,value
2019-03-29T00:00:03.241Z,87.94
2019-03-29T00:01:11.035Z,88.12
2019-03-29T00:02:14.240Z,89.00
2019-03-29T00:03:17.055Z,88.65
2019-03-29T00:04:20.402Z,89.15
2019-03-29T00:05:23.225Z,89.38
2019-03-29T00:06:29.125Z,89.38
2019-03-29T00:07:39.830Z,89.50
2019-03-29T00:08:38.773Z,89.57
2019-03-29T00:09:41.673Z,89.98
2019-03-29T00:10:44.544Z,90.01
2019-03-29T00:11:48.639Z,89.63
2019-03-29T00:12:51.836Z,89.82
2019-03-29T00:13:58.353Z,89.70
2019-03-29T00:15:01.309Z,89.70
2019-03-29T00:16:04.222Z,89.25
2019-03-29T00:17:07.081Z,89.25
2019-03-29T00:18:10.339Z,89.25
2019-03-29T00:19:13.265Z,89.14
2019-03-29T00:20:16.094Z,89.12
2019-03-29T00:21:20.333Z,89.12
2019-03-29T00:22:23.180Z,88.69
2019-03-29T00:23:26.028Z,88.69
2019-03-29T00:24:29.221Z,89.10
2019-03-29T00:25:33.061Z,88.84
2019-03-29T00:26:36.006Z,89.54
2019-03-29T00:27:42.674Z,89.28
2019-03-29T00:28:45.460Z,89.21
2019-03-29T00:29:48.754Z,89.70
2019-03-29T00:30:55.752Z,89.15
2019-03-29T00:32:01.532Z,88.98
2019-03-29T00:33:04.743Z,88.98
2019-03-29T00:34:09.722Z,89.29
2019-03-29T00:35:12.600Z,89.36
2019-03-29T00:36:16.031Z,89.36
2019-03-29T00:37:18.876Z,89.66
2019-03-29T00:38:22.348Z,89.66
2019-03-29T00:39:26.371Z,89.76
2019-03-29T00:40:29.197Z,89.76
2019-03-29T00:41:32.111Z,90.26
2019-03-29T00:42:35.491Z,90.26
2019-03-29T00:43:38.299Z,89.79
2019-03-29T00:44:41.125Z,90.58
2019-03-29T00:45:45.190Z,90.58
2019-03-29T00:46:49.041Z,90.68
2019-03-29T00:47:52.203Z,90.68
2019-03-29T00:48:55.508Z,90.48
2019-03-29T00:49:58.722Z,90.16
2019-03-29T00:51:01.528Z,90.10
2019-03-29T00:52:04.413Z,90.68
2019-03-29T00:53:07.249Z,90.68
2019-03-29T00:54:11.159Z,90.60
2019-03-29T00:55:15.955Z,90.60
2019-03-29T00:56:18.787Z,90.48
2019-03-29T00:57:21.683Z,91.07
2019-03-29T00:58:26.078Z,90.34
2019-03-29T00:59:29.006Z,90.48
2019-03-29T01:00:33.510Z,90.90
2019-03-29T01:01:36.994Z,90.90
2019-03-29T01:02:39.859Z,90.56
2019-03-29T01:03:43.180Z,90.36
2019-03-29T01:04:46.019Z,89.89
2019-03-29T01:05:49.274Z,90.59
2019-03-29T01:06:52.107Z,89.99
2019-03-29T01:08:07.047Z,89.94
2019-03-29T01:09:00.129Z,89.94
2019-03-29T01:10:03.098Z,90.39
2019-03-29T01:11:06.130Z,89.97
2019-03-29T01:12:09.471Z,89.97
2019-03-29T01:13:12.287Z,89.56
2019-03-29T01:14:17.828Z,89.25
2019-03-29T01:15:23.175Z,89.38
2019-03-29T01:16:26.008Z,89.06
2019-03-29T01:17:28.889Z,89.28
2019-03-29T01:18:34.200Z,89.80
2019-03-29T01:19:37.120Z,89.80
2019-03-29T01:20:40.486Z,89.13
2019-03-29T01:21:43.427Z,89.60
2019-03-29T01:22:46.259Z,89.00
2019-03-29T01:23:51.519Z,89.40
2019-03-29T01:24:54.424Z,89.40
2019-03-29T01:25:57.232Z,89.84
2019-03-29T01:27:00.653Z,89.10
2019-03-29T01:28:03.496Z,89.33
2019-03-29T01:29:06.306Z,89.40
2019-03-29T01:30:09.264Z,89.74
2019-03-29T01:31:12.148Z,89.79
2019-03-29T01:32:14.966Z,89.79
2019-03-29T01:33:18.280Z,90.13
2019-03-29T01:34:21.583Z,89.66
2019-03-29T01:35:24.952Z,90.06
2019-03-29T01:36:28.272Z,90.02
2019-03-29T01:37:31.288Z,89.71
2019-03-29T01:38:34.182Z,89.41
2019-03-29T01:39:37.911Z,89.27
2019-03-29T01:40:41.210Z,89.27
2019-03-29T01:41:44.483Z,89.60
2019-03-29T01:42:49.287Z,89.60
2019-03-29T01:44:09.389Z,90.07
2019-03-29T01:45:14.174Z,90.25
2019-03-29T01:46:25.223Z,90.25
2019-03-29T01:47:32.103Z,90.31
2019-03-29T01:48:34.989Z,89.88
2019-03-29T01:49:41.876Z,89.94
2019-03-29T01:50:47.087Z,89.94
2019-03-29T01:51:49.591Z,90.29
2019-03-29T01:52:53.694Z,90.53
2019-03-29T01:53:56.507Z,90.31
2019-03-29T01:54:59.721Z,90.31
2019-03-29T01:56:02.587Z,90.87
2019-03-29T01:57:05.437Z,90.98
2019-03-29T01:58:09.202Z,91.42
2019-03-29T01:59:12.475Z,91.31
2019-03-29T02:00:15.666Z,91.54
2019-03-29T02:01:21.562Z,91.18
2019-03-29T02:02:27.606Z,91.69
2019-03-29T02:03:30.440Z,91.69
2019-03-29T02:04:42.976Z,91.53
2019-03-29T02:05:46.888Z,91.74
2019-03-29T02:06:49.752Z,91.26
2019-03-29T02:07:52.573Z,91.38
2019-03-29T02:08:55.776Z,91.92
2019-03-29T02:09:59.092Z,91.92
2019-03-29T02:11:02.690Z,91.49
2019-03-29T02:12:07.364Z,91.65
2019-03-29T02:13:10.255Z,91.50
2019-03-29T02:14:13.098Z,91.96
2019-03-29T02:15:20.159Z,92.08
2019-03-29T02:16:23.472Z,92.08
2019-03-29T02:17:26.640Z,92.50
2019-03-29T02:18:29.448Z,92.55
2019-03-29T02:19:32.317Z,92.62
2019-03-29T02:20:35.155Z,92.55
2019-03-29T02:21:38.069Z,92.55
2019-03-29T02:22:40.891Z,92.70
2019-03-29T02:23:44.071Z,92.61
2019-03-29T02:24:46.957Z,92.92
2019-03-29T02:25:49.776Z,92.92
2019-03-29T02:26:52.597Z,93.19
2019-03-29T02:27:55.436Z,93.19
2019-03-29T02:28:58.265Z,92.92
2019-03-29T02:30:04.571Z,92.92
2019-03-29T02:31:07.997Z,93.14
2019-03-29T02:32:10.968Z,93.16
2019-03-29T02:33:13.805Z,93.16
2019-03-29T02:34:16.608Z,93.96
2019-03-29T02:35:19.511Z,93.66
2019-03-29T02:36:28.749Z,93.66
2019-03-29T02:37:32.017Z,93.73
2019-03-29T02:38:53.510Z,93.20
2019-03-29T02:39:39.289Z,93.47
2019-03-29T02:40:44.894Z,93.81
2019-03-29T02:41:47.685Z,93.62
2019-03-29T02:42:51.035Z,93.18
2019-03-29T02:43:56.993Z,93.03
2019-03-29T02:44:59.917Z,93.03
2019-03-29T02:46:02.767Z,93.11
2019-03-29T02:47:05.611Z,92.95
2019-03-29T02:48:08.418Z,92.73
2019-03-29T02:49:12.737Z,92.66
2019-03-29T02:50:16.030Z,92.67
2019-03-29T02:51:18.808Z,92.75
2019-03-29T02:52:21.644Z,92.75
2019-03-29T02:53:24.825Z,92.86
2019-03-29T02:54:28.092Z,93.01
2019-03-29T02:55:31.422Z,93.01
2019-03-29T02:56:34.734Z,92.91
2019-03-29T02:57:38.736Z,92.91
2019-03-29T02:58:41.502Z,92.78
2019-03-29T02:59:44.327Z,92.47
2019-03-29T03:00:48.286Z,92.35
2019-03-29T03:01:53.971Z,92.35
2019-03-29T03:02:57.298Z,91.98
2019-03-29T03:04:00.123Z,91.98
2019-03-29T03:05:03.340Z,92.31
2019-03-29T03:06:06.240Z,92.87
2019-03-29T03:07:09.128Z,92.87
2019-03-29T03:08:14.481Z,92.86
2019-03-29T03:09:17.316Z,92.98
2019-03-29T03:10:20.114Z,93.27
2019-03-29T03:11:22.984Z,93.18
2019-03-29T03:12:25.774Z,93.62
2019-03-29T03:13:28.649Z,92.87
2019-03-29T03:14:31.914Z,93.00
2019-03-29T03:15:34.813Z,93.23
2019-03-29T03:16:38.248Z,92.92
2019-03-29T03:17:41.118Z,92.92
2019-03-29T03:18:44.393Z,92.78
2019-03-29T03:19:47.265Z,92.26
2019-03-29T03:20:50.677Z,92.53
2019-03-29T03:21:54.140Z,92.03
2019-03-29T03:22:57.339Z,92.03
2019-03-29T03:24:00.208Z,92.75
2019-03-29T03:25:03.532Z,92.17
2019-03-29T03:26:06.836Z,92.30
2019-03-29T03:27:09.947Z,92.21
2019-03-29T03:28:12.735Z,92.25
2019-03-29T03:29:15.587Z,92.46
2019-03-29T03:30:18.397Z,92.38
2019-03-29T03:31:22.192Z,92.05
2019-03-29T03:32:25.091Z,92.19
2019-03-29T03:33:28.228Z,91.82
2019-03-29T03:34:31.041Z,91.91
2019-03-29T03:35:33.903Z,91.97
2019-03-29T03:36:36.707Z,91.89
2019-03-29T03:37:39.658Z,91.41
2019-03-29T03:38:42.461Z,91.41
2019-03-29T03:39:45.827Z,91.57
2019-03-29T03:40:48.635Z,91.19
2019-03-29T03:41:51.512Z,91.32
2019-03-29T03:42:54.389Z,91.32
2019-03-29T03:43:57.198Z,91.44
2019-03-29T03:45:02.219Z,91.95
2019-03-29T03:46:05.038Z,91.81
2019-03-29T03:47:07.861Z,91.56
2019-03-29T03:48:10.769Z,91.27
2019-03-29T03:49:13.602Z,91.45
2019-03-29T03:50:16.423Z,91.45
2019-03-29T03:51:19.221Z,91.41
2019-03-29T03:52:22.484Z,91.22
2019-03-29T03:53:25.383Z,91.22
2019-03-29T03:54:28.235Z,91.32
2019-03-29T03:55:31.103Z,91.56
2019-03-29T03:56:34.214Z,90.94
2019-03-29T03:57:37.057Z,90.94
2019-03-29T03:58:40.406Z,91.70
2019-03-29T03:59:43.582Z,91.70
2019-03-29T04:00:47.008Z,91.81
2019-03-29T04:01:49.886Z,91.58
2019-03-29T04:02:52.684Z,91.29
2019-03-29T04:03:57.132Z,91.42
2019-03-29T04:05:00.891Z,90.90
2019-03-29T04:06:04.167Z,91.41
2019-03-29T04:07:06.984Z,90.92
2019-03-29T04:08:09.789Z,91.00
2019-03-29T04:09:13.100Z,91.00
2019-03-29T04:10:15.879Z,90.94
2019-03-29T04:11:20.025Z,91.43
2019-03-29T04:12:22.830Z,91.51
2019-03-29T04:13:26.068Z,91.17
2019-03-29T04:14:28.876Z,91.47
2019-03-29T04:15:31.740Z,91.47
2019-03-29T04:16:34.808Z,91.20
2019-03-29T04:17:38.647Z,91.05
2019-03-29T04:18:41.522Z,91.01
2019-03-29T04:19:44.350Z,90.71
2019-03-29T04:20:47.151Z,91.18
2019-03-29T04:21:49.965Z,90.97
2019-03-29T04:22:52.759Z,90.80
2019-03-29T04:23:56.299Z,91.38
2019-03-29T04:24:59.150Z,91.45
2019-03-29T04:26:02.471Z,91.00
2019-03-29T04:27:05.842Z,91.00
2019-03-29T04:28:08.698Z,91.04
2019-03-29T04:29:11.583Z,90.97
2019-03-29T04:30:14.840Z,90.87
2019-03-29T04:31:17.676Z,90.87
2019-03-29T04:32:20.483Z,90.74
2019-03-29T04:33:23.313Z,90.20
2019-03-29T04:34:26.725Z,90.19
2019-03-29T04:35:29.691Z,90.21
2019-03-29T04:36:35.772Z,90.51
2019-03-29T04:37:39.071Z,90.51
2019-03-29T04:38:41.952Z,90.50
2019-03-29T04:39:44.809Z,90.80
2019-03-29T04:40:47.581Z,90.73
2019-03-29T04:41:50.785Z,90.43
2019-03-29T04:42:53.917Z,90.81
2019-03-29T04:43:57.204Z,90.42
2019-03-29T04:45:00.139Z,90.42
2019-03-29T04:46:03.271Z,89.96
2019-03-29T04:47:06.098Z,90.43
2019-03-29T04:48:08.922Z,90.17
2019-03-29T04:49:12.277Z,90.99
2019-03-29T04:50:15.130Z,90.51
2019-03-29T04:51:17.917Z,90.82
2019-03-29T04:52:20.723Z,90.38
2019-03-29T04:53:23.535Z,90.64
2019-03-29T04:54:27.997Z,90.74
2019-03-29T04:55:31.367Z,90.74
2019-03-29T04:56:34.194Z,90.61
2019-03-29T04:57:36.970Z,90.86
2019-03-29T04:58:40.271Z,91.22
2019-03-29T04:59:43.074Z,90.88
2019-03-29T05:00:46.282Z,90.91
2019-03-29T05:01:49.582Z,90.76
2019-03-29T05:02:52.842Z,91.03
2019-03-29T05:03:55.710Z,90.72
2019-03-29T05:04:58.556Z,91.53
2019-03-29T05:06:03.535Z,91.17
2019-03-29T05:07:06.384Z,91.11
2019-03-29T05:08:11.546Z,91.15
2019-03-29T05:09:14.329Z,90.70
2019-03-29T05:10:21.400Z,91.18
2019-03-29T05:11:22.458Z,91.41
2019-03-29T05:12:25.277Z,91.33
2019-03-29T05:13:28.199Z,91.30
2019-03-29T05:14:31.354Z,91.36
2019-03-29T05:15:34.232Z,91.36
2019-03-29T05:16:37.034Z,91.06
2019-03-29T05:17:39.852Z,91.58
2019-03-29T05:18:43.171Z,91.47
2019-03-29T05:19:46.113Z,91.47
2019-03-29T05:20:49.251Z,91.16
2019-03-29T05:21:52.112Z,90.79
2019-03-29T05:22:54.953Z,91.28
2019-03-29T05:23:58.154Z,90.79
2019-03-29T05:25:01.012Z,90.79
2019-03-29T05:26:04.218Z,91.39
2019-03-29T05:27:07.303Z,91.39
2019-03-29T05:28:18.964Z,91.31
2019-03-29T05:29:21.759Z,91.67
2019-03-29T05:30:24.692Z,91.67
2019-03-29T05:31:27.474Z,91.19
2019-03-29T05:32:30.290Z,90.85
2019-03-29T05:33:33.383Z,90.85
2019-03-29T05:34:36.225Z,90.54
2019-03-29T05:35:39.086Z,90.54
2019-03-29T05:36:42.400Z,90.56
2019-03-29T05:37:45.253Z,90.00
2019-03-29T05:38:48.063Z,90.76
2019-03-29T05:39:51.214Z,90.29
2019-03-29T05:40:54.058Z,90.76
2019-03-29T05:41:56.926Z,90.46
2019-03-29T05:42:59.828Z,90.04
2019-03-29T05:44:02.657Z,90.04
2019-03-29T05:45:05.497Z,89.89
2019-03-29T05:46:08.612Z,89.89
2019-03-29T05:47:11.553Z,90.26
2019-03-29T05:48:16.518Z,90.26
2019-03-29T05:49:19.333Z,89.74
2019-03-29T05:50:22.164Z,89.74
2019-03-29T05:51:25.025Z,89.59
2019-03-29T05:52:28.199Z,89.59
2019-03-29T05:53:31.103Z,89.72
2019-03-29T05:54:35.941Z,89.49
2019-03-29T05:55:38.728Z,89.30
2019-03-29T05:56:41.563Z,89.12
2019-03-29T05:57:45.900Z,89.05
2019-03-29T05:58:48.976Z,89.05
2019-03-29T05:59:52.166Z,88.57
2019-03-29T06:00:55.413Z,88.16
2019-03-29T06:01:58.344Z,88.00
2019-03-29T06:03:01.214Z,87.78
2019-03-29T06:04:04.005Z,88.20
2019-03-29T06:05:07.132Z,88.20
2019-03-29T06:06:09.974Z,87.74
2019-03-29T06:07:12.897Z,87.33
2019-03-29T06:08:16.085Z,86.48
2019-03-29T06:09:18.895Z,84.51
2019-03-29T06:10:21.855Z,84.55
2019-03-29T06:11:24.965Z,83.20
2019-03-29T06:12:27.945Z,83.20
2019-03-29T06:13:30.852Z,83.34
2019-03-29T06:14:33.694Z,82.37
2019-03-29T06:15:36.536Z,82.37
2019-03-29T06:16:39.810Z,81.26
2019-03-29T06:17:49.491Z,80.99
2019-03-29T06:18:50.526Z,80.99
2019-03-29T06:19:53.402Z,80.50
2019-03-29T06:20:56.191Z,80.41
2019-03-29T06:21:58.997Z,80.41
2019-03-29T06:23:01.918Z,80.09
2019-03-29T06:24:06.873Z,79.91
2019-03-29T06:25:09.696Z,79.66
2019-03-29T06:26:12.484Z,79.66
2019-03-29T06:27:15.318Z,78.87
2019-03-29T06:28:18.664Z,77.74
2019-03-29T06:29:21.609Z,77.69
2019-03-29T06:44:00.785Z,73.63
2019-03-29T06:45:03.674Z,73.63
2019-03-29T06:46:08.058Z,73.89
2019-03-29T06:47:11.039Z,73.89
2019-03-29T06:48:16.092Z,73.63
2019-03-29T06:49:18.926Z,73.63
2019-03-29T06:50:21.756Z,72.69
2019-03-29T06:51:29.922Z,72.69
2019-03-29T06:52:33.231Z,71.71
2019-03-29T06:53:36.180Z,71.20
2019-03-29T06:54:41.352Z,71.50
2019-03-29T06:55:44.187Z,71.67
2019-03-29T06:56:49.273Z,71.67
2019-03-29T06:57:52.186Z,71.25
2019-03-29T06:58:55.052Z,71.25
2019-03-29T06:59:58.091Z,70.75
2019-03-29T07:01:01.845Z,70.76
2019-03-29T07:02:04.739Z,71.34
2019-03-29T07:03:07.562Z,70.45
2019-03-29T07:04:10.404Z,69.95
2019-03-29T07:05:13.395Z,69.95
2019-03-29T07:06:16.565Z,69.25
2019-03-29T07:07:19.720Z,69.25
2019-03-29T07:08:22.515Z,68.75
2019-03-29T07:09:25.719Z,68.75
2019-03-29T07:10:29.642Z,67.26
2019-03-29T07:11:32.449Z,67.26
2019-03-29T07:12:35.665Z,67.66
2019-03-29T07:13:41.763Z,67.74
2019-03-29T07:14:47.111Z,67.23
2019-03-29T07:15:49.964Z,67.48
2019-03-29T07:16:52.789Z,67.36
2019-03-29T07:17:56.660Z,67.36
2019-03-29T07:18:59.479Z,67.04
2019-03-29T07:20:02.510Z,66.69
2019-03-29T07:21:20.945Z,65.56
2019-03-29T07:22:13.408Z,64.86
2019-03-29T07:23:16.505Z,64.86
2019-03-29T07:24:19.395Z,64.46
2019-03-29T07:25:22.688Z,64.62
2019-03-29T07:26:25.590Z,63.33
2019-03-29T07:27:28.432Z,63.45
2019-03-29T07:28:31.273Z,63.45
2019-03-29T07:29:34.565Z,63.45
2019-03-29T07:30:37.468Z,63.57
2019-03-29T07:31:40.591Z,63.57
2019-03-29T07:32:43.416Z,62.76
2019-03-29T07:33:46.283Z,63.33
2019-03-29T07:34:50.491Z,63.33
2019-03-29T07:35:53.292Z,63.91
2019-03-29T07:36:56.195Z,63.73
2019-03-29T07:37:59.336Z,63.73
2019-03-29T07:39:02.572Z,62.30
2019-03-29T07:40:08.527Z,62.30
2019-03-29T07:41:14.175Z,61.52
2019-03-29T07:42:17.132Z,61.34
2019-03-29T07:43:19.967Z,61.34
2019-03-29T07:44:22.806Z,60.37
2019-03-29T07:45:25.649Z,60.05
2019-03-29T07:46:30.375Z,60.05
2019-03-29T07:47:33.317Z,58.68
2019-03-29T07:48:36.142Z,58.94
2019-03-29T07:49:39.414Z,58.82
2019-03-29T07:50:42.974Z,58.78
2019-03-29T07:51:49.200Z,58.78
2019-03-29T07:52:52.350Z,58.89
2019-03-29T07:53:58.574Z,57.75
2019-03-29T07:56:24.420Z,57.70
2019-03-29T07:57:30.288Z,57.68
2019-03-29T07:58:35.807Z,57.18
2019-03-29T07:59:38.651Z,56.95
2019-03-29T08:00:41.722Z,56.10
2019-03-29T08:01:46.495Z,56.10
2019-03-29T08:02:49.821Z,55.81
2019-03-29T08:03:55.282Z,56.33
2019-03-29T08:04:58.501Z,55.97
2019-03-29T08:06:01.742Z,56.05
2019-03-29T08:07:06.142Z,56.05
2019-03-29T08:08:23.338Z,56.02
2019-03-29T08:09:22.409Z,55.73
2019-03-29T08:10:27.463Z,53.41
2019-03-29T08:11:26.483Z,53.00
2019-03-29T08:12:29.730Z,52.09
2019-03-29T08:13:33.289Z,52.09
2019-03-29T08:14:36.458Z,51.72
2019-03-29T08:15:39.868Z,52.61
2019-03-29T08:16:42.729Z,52.29
2019-03-29T08:17:45.574Z,53.35
2019-03-29T08:18:51.662Z,52.64
2019-03-29T08:20:18.945Z,52.70
2019-03-29T08:21:01.342Z,52.97
2019-03-29T08:22:04.256Z,52.17
2019-03-29T08:23:09.884Z,51.75
2019-03-29T08:24:12.847Z,51.39
2019-03-29T08:25:15.720Z,51.49
2019-03-29T08:26:18.691Z,51.42
2019-03-29T08:27:22.211Z,51.27
2019-03-29T08:28:25.050Z,51.27
2019-03-29T08:29:31.641Z,51.32
2019-03-29T08:30:34.922Z,51.32
2019-03-29T08:31:39.998Z,52.23
2019-03-29T08:32:42.587Z,50.59
2019-03-29T08:33:46.035Z,50.21
2019-03-29T08:34:49.014Z,50.24
2019-03-29T08:35:51.852Z,50.19
2019-03-29T08:36:54.759Z,50.19
2019-03-29T08:37:57.750Z,49.49
2019-03-29T08:39:00.730Z,49.54
2019-03-29T08:40:04.052Z,49.21
2019-03-29T08:41:06.936Z,48.78
2019-03-29T08:42:09.872Z,48.78
2019-03-29T08:43:12.790Z,48.63
2019-03-29T08:44:15.595Z,48.63
2019-03-29T08:45:18.417Z,48.68
2019-03-29T08:46:24.910Z,48.75
2019-03-29T08:47:27.851Z,50.78
2019-03-29T08:48:30.821Z,49.93
2019-03-29T08:49:33.818Z,50.26
2019-03-29T08:50:37.022Z,49.52
2019-03-29T08:51:41.442Z,49.90
2019-03-29T08:52:45.752Z,49.90
2019-03-29T08:53:51.393Z,49.49
2019-03-29T08:54:54.762Z,52.52
2019-03-29T08:56:04.821Z,52.32
2019-03-29T08:57:10.482Z,51.03
2019-03-29T08:58:15.527Z,51.39
2019-03-29T08:59:19.386Z,52.19
2019-03-29T09:00:22.188Z,52.95
2019-03-29T09:01:25.198Z,54.27
2019-03-29T09:02:28.017Z,54.27
2019-03-29T09:03:30.986Z,54.69
2019-03-29T09:04:34.273Z,53.66
2019-03-29T09:05:42.350Z,51.57
2019-03-29T09:06:53.458Z,49.75
2019-03-29T09:07:53.846Z,49.75
2019-03-29T09:08:56.681Z,51.57
2019-03-29T09:10:01.428Z,50.91
2019-03-29T09:11:07.797Z,51.37
2019-03-29T09:12:14.743Z,51.37
2019-03-29T09:14:53.161Z,54.26
2019-03-29T09:15:57.934Z,53.99
2019-03-29T09:17:00.883Z,53.80
2019-03-29T09:18:03.666Z,52.16
2019-03-29T09:19:09.920Z,52.30
2019-03-29T09:20:12.804Z,52.30
2019-03-29T09:21:18.069Z,52.54
2019-03-29T09:22:20.938Z,51.25
2019-03-29T09:23:23.806Z,51.02
2019-03-29T09:24:26.788Z,51.02
2019-03-29T09:25:32.837Z,51.55
2019-03-29T09:26:35.775Z,51.34
2019-03-29T09:27:40.563Z,50.12
2019-03-29T09:28:43.732Z,50.54
2019-03-29T09:29:46.624Z,50.54
2019-03-29T09:30:49.544Z,50.06
2019-03-29T09:31:52.669Z,49.33
2019-03-29T09:32:56.098Z,48.94
2019-03-29T09:33:58.912Z,47.59
2019-03-29T09:35:02.228Z,47.59
2019-03-29T09:36:05.558Z,51.01
2019-03-29T09:37:08.447Z,50.87
2019-03-29T09:38:14.523Z,50.65
2019-03-29T09:39:20.026Z,50.65
2019-03-29T09:40:22.904Z,52.74
2019-03-29T09:41:29.753Z,51.35
2019-03-29T09:42:32.763Z,51.35
2019-03-29T09:43:35.725Z,51.01
2019-03-29T09:44:41.592Z,51.86
2019-03-29T09:45:44.441Z,51.16
2019-03-29T09:46:47.522Z,51.31
2019-03-29T09:47:50.808Z,51.31
2019-03-29T09:48:57.620Z,49.22
2019-03-29T09:50:03.545Z,48.20
2019-03-29T09:51:12.081Z,48.07
2019-03-29T09:52:14.970Z,48.28
2019-03-29T09:53:17.800Z,48.28
2019-03-29T09:54:22.432Z,51.00
2019-03-29T09:55:25.803Z,51.00
2019-03-29T09:56:38.802Z,48.62
2019-03-29T09:57:38.136Z,48.62
2019-03-29T09:58:44.902Z,47.42
2019-03-29T09:59:46.390Z,47.42
2019-03-29T10:00:49.350Z,46.94
2019-03-29T10:01:54.043Z,46.02
2019-03-29T10:03:03.457Z,45.69
2019-03-29T10:04:09.063Z,50.21
2019-03-29T10:05:13.551Z,51.28
2019-03-29T10:06:16.388Z,52.43
2019-03-29T10:07:22.211Z,52.43
2019-03-29T10:08:26.457Z,52.62
2019-03-29T10:09:32.191Z,52.68
2019-03-29T10:10:37.070Z,51.79
2019-03-29T10:11:39.807Z,51.79
2019-03-29T10:12:44.104Z,51.01
2019-03-29T10:13:50.526Z,51.61
2019-03-29T10:14:53.429Z,50.11
2019-03-29T10:15:56.633Z,50.30
2019-03-29T10:16:59.581Z,50.30
2019-03-29T10:18:02.487Z,51.83
2019-03-29T10:19:05.335Z,52.13
2019-03-29T10:20:09.235Z,52.15
2019-03-29T10:21:16.978Z,51.38
2019-03-29T10:22:23.048Z,51.38
2019-03-29T10:25:18.592Z,45.80
2019-03-29T10:26:10.913Z,46.27
2019-03-29T10:27:13.881Z,46.27
2019-03-29T10:28:17.276Z,47.40
2019-03-29T10:29:21.380Z,47.40
2019-03-29T10:30:24.392Z,46.58
2019-03-29T10:31:32.370Z,46.02
2019-03-29T10:32:31.769Z,46.11
2019-03-29T10:33:34.982Z,47.37
2019-03-29T10:34:38.768Z,47.37
2019-03-29T10:35:51.483Z,48.50
2019-03-29T10:36:47.233Z,49.22
2019-03-29T10:37:52.784Z,48.66
2019-03-29T10:38:58.143Z,47.06
2019-03-29T10:40:00.624Z,47.06
2019-03-29T10:41:03.425Z,49.15
2019-03-29T10:42:08.650Z,49.99
2019-03-29T10:43:11.524Z,49.99
2019-03-29T10:44:17.269Z,49.21
2019-03-29T10:45:20.200Z,49.20
2019-03-29T10:46:23.606Z,49.33
2019-03-29T10:47:42.545Z,48.75
2019-03-29T10:48:32.105Z,47.56
2019-03-29T10:49:35.289Z,46.98
2019-03-29T10:50:38.356Z,48.04
2019-03-29T10:51:41.055Z,48.47
2019-03-29T10:52:44.187Z,47.54
2019-03-29T10:53:50.618Z,47.62
2019-03-29T10:54:55.074Z,48.87
2019-03-29T10:55:58.963Z,48.51
2019-03-29T10:57:06.700Z,48.14
2019-03-29T10:58:10.630Z,48.06
2019-03-29T10:59:26.706Z,48.11
2019-03-29T11:00:21.712Z,47.87
2019-03-29T11:01:24.971Z,47.35
2019-03-29T11:42:51.552Z,46.83
2019-03-29T11:43:55.501Z,46.74
2019-03-29T11:45:06.258Z,46.74
2019-03-29T11:46:09.658Z,46.01
2019-03-29T11:47:12.470Z,46.01
2019-03-29T11:48:15.763Z,46.06
2019-03-29T11:49:19.104Z,45.68
2019-03-29T11:50:21.994Z,45.68
2019-03-29T11:51:26.161Z,44.22
2019-03-29T11:52:29.226Z,44.23
2019-03-29T11:53:32.391Z,45.32
2019-03-29T11:54:35.628Z,44.21
2019-03-29T11:55:40.227Z,43.59
2019-03-29T11:56:43.062Z,43.59
2019-03-29T11:57:50.656Z,45.84
2019-03-29T11:58:53.600Z,47.00
2019-03-29T11:59:56.514Z,47.00
2019-03-29T12:00:59.923Z,45.92
2019-03-29T12:02:03.109Z,45.36
2019-03-29T12:03:09.095Z,45.36
2019-03-29T12:04:10.619Z,45.88
2019-03-29T12:05:17.271Z,45.23
2019-03-29T12:06:20.238Z,44.42
2019-03-29T12:07:25.345Z,44.42
2019-03-29T12:08:28.209Z,43.10
2019-03-29T12:09:31.262Z,45.55
2019-03-29T12:10:34.127Z,45.76
2019-03-29T12:11:41.110Z,46.24
2019-03-29T12:12:43.938Z,45.53
2019-03-29T12:13:47.399Z,44.73
2019-03-29T12:14:50.293Z,44.53
2019-03-29T12:15:55.923Z,42.72
2019-03-29T12:17:04.330Z,42.72
2019-03-29T12:18:06.974Z,42.00
2019-03-29T12:19:12.292Z,40.86
2019-03-29T12:20:16.090Z,41.01
2019-03-29T12:21:18.974Z,41.27
2019-03-29T12:22:22.265Z,40.66
2019-03-29T12:23:32.638Z,40.66
2019-03-29T12:24:35.522Z,41.77
2019-03-29T12:25:38.353Z,43.25
2019-03-29T12:26:41.732Z,43.62
2019-03-29T12:27:46.839Z,44.69
2019-03-29T12:28:49.550Z,44.93
2019-03-29T12:29:52.258Z,44.93
2019-03-29T12:30:55.074Z,45.41
2019-03-29T12:31:59.380Z,44.35
2019-03-29T12:33:02.716Z,43.62
2019-03-29T12:34:09.353Z,42.94
2019-03-29T12:35:12.445Z,43.81
2019-03-29T12:36:15.153Z,43.57
2019-03-29T12:37:17.982Z,43.33
2019-03-29T12:38:20.802Z,43.35
2019-03-29T12:39:24.439Z,43.03
2019-03-29T12:40:28.559Z,42.92
2019-03-29T12:41:31.469Z,42.39
2019-03-29T12:42:34.164Z,41.95
2019-03-29T12:43:36.883Z,41.59
2019-03-29T12:44:39.539Z,40.70
2019-03-29T12:45:42.659Z,40.63
2019-03-29T12:46:46.248Z,40.63
2019-03-29T12:47:49.149Z,41.77
2019-03-29T12:48:51.930Z,41.22
2019-03-29T12:49:57.613Z,39.89
2019-03-29T12:51:00.343Z,38.34
2019-03-29T12:52:03.733Z,38.52
2019-03-29T12:53:08.343Z,37.46
2019-03-29T12:54:12.434Z,37.46
2019-03-29T12:55:17.563Z,38.77
2019-03-29T12:56:29.632Z,38.77
2019-03-29T12:57:32.837Z,38.75
2019-03-29T12:58:39.509Z,38.75
2019-03-29T12:59:42.977Z,37.76
2019-03-29T13:00:51.383Z,37.86
2019-03-29T13:01:54.913Z,37.86
2019-03-29T13:02:57.708Z,37.13
2019-03-29T13:04:01.371Z,38.98
2019-03-29T13:05:08.475Z,39.44
2019-03-29T13:06:14.992Z,40.47
2019-03-29T13:07:17.707Z,39.80
2019-03-29T13:08:22.076Z,39.43
2019-03-29T13:09:24.762Z,39.43
2019-03-29T13:10:36.001Z,40.60
2019-03-29T13:11:42.049Z,41.26
2019-03-29T13:12:46.761Z,41.64
2019-03-29T13:13:51.730Z,41.48
2019-03-29T13:14:57.252Z,41.31
2019-03-29T13:15:59.913Z,41.74
2019-03-29T13:17:03.852Z,42.06
2019-03-29T13:18:07.563Z,42.06
2019-03-29T13:19:10.474Z,43.08
2019-03-29T13:20:13.186Z,42.52
2019-03-29T13:21:15.967Z,42.12
2019-03-29T13:22:19.307Z,41.58
2019-03-29T13:23:22.317Z,41.10
2019-03-29T13:24:24.977Z,41.39
2019-03-29T13:25:27.761Z,41.39
2019-03-29T13:26:32.626Z,42.27
2019-03-29T13:27:38.170Z,41.62
2019-03-29T13:28:46.278Z,41.02
2019-03-29T13:29:49.408Z,39.21
2019-03-29T13:30:52.313Z,39.61
2019-03-29T13:31:55.421Z,39.61
2019-03-29T13:33:00.646Z,39.90
2019-03-29T13:34:03.469Z,40.84
2019-03-29T13:35:06.281Z,40.84
2019-03-29T13:36:11.967Z,40.85
2019-03-29T13:37:15.652Z,40.42
2019-03-29T13:38:20.506Z,41.53
2019-03-29T13:39:22.937Z,41.44
2019-03-29T13:40:28.212Z,41.78
2019-03-29T13:41:30.652Z,41.78
2019-03-29T13:42:38.769Z,42.73
2019-03-29T13:43:43.894Z,41.77
2019-03-29T13:44:48.026Z,42.39
2019-03-29T13:45:52.859Z,42.01
2019-03-29T13:46:55.502Z,41.71
2019-03-29T13:47:58.779Z,41.50
2019-03-29T13:49:01.711Z,41.50
2019-03-29T13:50:04.711Z,40.29
2019-03-29T13:51:09.723Z,39.40
2019-03-29T13:52:18.896Z,39.40
2019-03-29T13:53:23.804Z,37.94
2019-03-29T13:54:27.042Z,38.73
2019-03-29T13:55:30.131Z,38.53
2019-03-29T13:56:34.230Z,38.53
2019-03-29T13:57:37.793Z,38.39
2019-03-29T13:58:47.966Z,38.55
2019-03-29T13:59:46.506Z,39.39
2019-03-29T14:00:52.333Z,38.75
2019-03-29T14:01:56.826Z,39.86
2019-03-29T14:03:00.088Z,40.08
2019-03-29T14:04:05.567Z,40.08
2019-03-29T14:05:08.257Z,39.80
2019-03-29T14:06:12.341Z,39.19
2019-03-29T14:07:18.519Z,39.19
2019-03-29T14:08:21.558Z,41.28
2019-03-29T14:09:24.709Z,41.28
2019-03-29T14:10:27.378Z,40.73
2019-03-29T14:11:32.659Z,39.42
2019-03-29T14:12:35.588Z,40.71
2019-03-29T14:13:41.659Z,40.71
2019-03-29T14:14:46.914Z,39.55
2019-03-29T14:15:49.567Z,39.00
2019-03-29T14:16:57.073Z,38.75
2019-03-29T14:18:05.118Z,39.24
2019-03-29T14:19:08.100Z,39.66
2019-03-29T14:20:13.403Z,39.66
2019-03-29T14:21:22.123Z,41.02
2019-03-29T14:22:24.989Z,40.84
2019-03-29T14:23:28.016Z,40.45
2019-03-29T14:24:32.599Z,39.52
2019-03-29T14:25:38.682Z,39.52
2019-03-29T14:26:43.137Z,38.71
2019-03-29T14:27:48.844Z,38.20
2019-03-29T14:28:55.125Z,38.62
2019-03-29T14:30:04.794Z,39.35
2019-03-29T14:31:10.182Z,39.35
2019-03-29T14:32:13.254Z,40.43
2019-03-29T14:33:16.243Z,40.12
2019-03-29T14:34:26.886Z,40.12
2019-03-29T14:35:29.678Z,40.52
2019-03-29T14:36:32.690Z,40.73
2019-03-29T14:37:35.523Z,41.13
2019-03-29T14:38:38.778Z,41.13
2019-03-29T14:39:41.640Z,41.33